Tomahawk, WI

11:34 AM CDT on May 27, 2017 (GMT -0500)
Tomahawk

Weather History for KTKV - December, 2013

Change the Weather History Date:

Sunday, December 29, 2013

  Actual Average (KRHI) Record (KRHI)
Temperature  
Mean Temperature 4 °F -  
Max Temperature 23 °F 22 °F 42 °F (1979)
Min Temperature -16 °F 2 °F -28 °F (1917)
Degree Days  
Heating Degree Days 61    
Moisture  
Dew Point -1 °F    
Average Humidity 78    
Maximum Humidity 94    
Minimum Humidity 66    
Precipitation  
Precipitation 0.00 in - - ()
Sea Level Pressure  
Sea Level Pressure 30.00 in    
Wind  
Wind Speed 10 mph (NW)    
Max Wind Speed 16 mph    
Max Gust Speed 28 mph    
Visibility 8 miles    
Events Snow    
Averages and records for this station are not official NWS values.
T = Trace of Precipitation, MM = Missing Value Source: NWS Daily Summary

Daily Weather History Graph

Daily Weather History Graph

Search for Another Location

Airport or City:

Trip Planner

Search our weather history database for the weather conditions in past years. The results will help you decide how hot, cold, wet, or windy it might be!

Date:

Astronomy

Dec. 29, 2013 Rise Set
Actual Time 7:38 AM CST 4:24 PM CST
Civil Twilight 7:04 AM CST 4:58 PM CST
Nautical Twilight 6:27 AM CST 5:35 PM CST
Astronomical Twilight 5:51 AM CST 6:11 PM CST
Moon 4:18 AM CST (12/29) 2:05 PM CST (12/29)
Length of Visible Light 9h 53m
Length of Day
8h 45m
Waning Crescent, 11% of the Moon is Illuminated
Dec 29
Waning Crescent
Jan 1
New
Jan 7
First Quarter
Jan 15
Full
Jan 23
Last Quarter

Hourly Weather History & Observations

Time (CST) Temp. Windchill Dew Point Humidity Pressure Visibility Wind Dir Wind Speed Gust Speed Precip Events Conditions
12:15 AM 23.7 °F 11.5 °F 22.1 °F 94% 29.78 in 4.0 mi North 13.8 mph 19.6 mph N/A   Overcast
12:35 AM 21.9 °F 9.2 °F 20.1 °F 93% 29.79 in 10.0 mi North 13.8 mph 27.6 mph N/A   Overcast
12:55 AM 21.4 °F 10.4 °F 19.4 °F 92% 29.80 in 10.0 mi North 10.4 mph 20.7 mph N/A   Overcast
1:15 AM 21.0 °F 12.4 °F 18.9 °F 91% 29.81 in 5.0 mi NNE 6.9 mph 19.6 mph N/A   Overcast
1:35 AM 20.8 °F 10.4 °F 18.9 °F 92% 29.82 in 3.0 mi North 9.2 mph 21.9 mph N/A   Overcast
1:55 AM 20.1 °F 9.5 °F 18.0 °F 91% 29.84 in 3.0 mi North 9.2 mph 20.7 mph N/A Snow Light Snow
2:15 AM 19.0 °F 6.8 °F 16.7 °F 91% 29.85 in 4.0 mi North 11.5 mph 18.4 mph N/A   Overcast
2:35 AM 18.1 °F 5.0 °F 15.8 °F 91% 29.86 in 4.0 mi NNW 12.7 mph 20.7 mph N/A Snow Light Snow
2:55 AM 16.5 °F 3.6 °F 13.8 °F 89% 29.86 in 3.0 mi North 11.5 mph 25.3 mph N/A Snow Light Snow
3:15 AM 16.0 °F 3.6 °F 13.3 °F 89% 29.87 in 4.0 mi North 10.4 mph 18.4 mph N/A Snow Light Snow
3:35 AM 15.8 °F 4.2 °F 12.9 °F 88% 29.87 in 4.0 mi NNW 9.2 mph - N/A Snow Light Snow
3:55 AM 14.9 °F 0.3 °F 11.5 °F 86% 29.88 in 5.0 mi North 13.8 mph 18.4 mph N/A Snow Light Snow
4:15 AM 14.4 °F 3.3 °F 10.4 °F 84% 29.90 in 10.0 mi North 8.1 mph - N/A Snow Light Snow
4:35 AM 14.4 °F 2.4 °F 10.4 °F 84% 29.91 in 7.0 mi North 9.2 mph 17.3 mph N/A Snow Light Snow
4:55 AM 13.3 °F 0.3 °F 9.7 °F 86% 29.93 in 2.5 mi NNW 10.4 mph 16.1 mph N/A Snow Light Snow
5:15 AM 12.7 °F 0.4 °F 9.0 °F 85% 29.94 in 5.0 mi North 9.2 mph 18.4 mph N/A Snow Light Snow
5:35 AM 12.0 °F -2.0 °F 7.3 °F 81% 29.94 in 4.0 mi NNW 11.5 mph 23.0 mph N/A Snow Light Snow
5:55 AM 11.5 °F -1.1 °F 6.4 °F 80% 29.95 in 10.0 mi North 9.2 mph 20.7 mph N/A Snow Light Snow
6:15 AM 11.3 °F -5.5 °F 6.6 °F 81% 29.97 in 4.0 mi North 16.1 mph 23.0 mph N/A Snow Light Snow
6:35 AM 10.8 °F -2.0 °F 5.4 °F 79% 29.97 in 10.0 mi North 9.2 mph 18.4 mph N/A   Overcast
6:55 AM 10.4 °F -1.5 °F 5.5 °F 81% 29.98 in 10.0 mi NNW 8.1 mph - N/A   Overcast
7:15 AM 10.0 °F -1.9 °F 5.4 °F 81% 29.99 in 7.0 mi NNW 8.1 mph - N/A Snow Light Snow
7:35 AM 9.5 °F -5.2 °F 4.6 °F 81% 29.99 in 10.0 mi NNW 11.5 mph 17.3 mph N/A   Overcast
7:55 AM 9.1 °F -4.0 °F 4.1 °F 80% 30.00 in 7.0 mi NNW 9.2 mph 18.4 mph N/A Snow Light Snow
8:15 AM 8.6 °F -4.7 °F 3.0 °F 78% 30.00 in 10.0 mi NNW 9.2 mph 18.4 mph N/A   Overcast
8:35 AM 8.4 °F -7.3 °F 2.3 °F 76% 30.00 in 10.0 mi North 12.7 mph 20.7 mph N/A   Overcast
8:55 AM 7.7 °F -5.8 °F 1.2 °F 75% 30.01 in 7.0 mi North 9.2 mph 21.9 mph N/A   Overcast
9:15 AM 7.7 °F -6.6 °F 1.4 °F 75% 30.01 in 7.0 mi NNW 10.4 mph 18.4 mph N/A   Overcast
9:35 AM 8.4 °F -7.3 °F 0.3 °F 70% 30.01 in 10.0 mi North 12.7 mph 20.7 mph N/A   Overcast
9:55 AM 7.7 °F -8.9 °F -1.3 °F 67% 30.01 in 10.0 mi North 13.8 mph 27.6 mph N/A   Mostly Cloudy
10:15 AM 7.7 °F -8.9 °F -0.8 °F 68% 30.02 in 10.0 mi NNW 13.8 mph 25.3 mph N/A   Overcast
10:35 AM 8.1 °F -5.3 °F 0.3 °F 71% 30.02 in 5.0 mi NW 9.2 mph 20.7 mph N/A   Haze
10:55 AM 7.0 °F -7.5 °F 2.1 °F 80% 30.02 in 2.0 mi NW 10.4 mph 17.3 mph N/A   Haze
11:15 AM 7.7 °F -6.6 °F 1.2 °F 75% 30.00 in 4.0 mi NNW 10.4 mph 16.1 mph N/A   Haze
11:35 AM 7.0 °F -9.1 °F -0.8 °F 71% 30.00 in 7.0 mi NNW 12.7 mph 18.4 mph N/A   Overcast
11:55 AM 7.2 °F -8.1 °F -1.8 °F 67% 30.00 in 5.0 mi NNW 11.5 mph 20.7 mph N/A   Haze
12:15 PM 7.0 °F -8.3 °F -0.6 °F 71% 30.00 in 4.0 mi NNW 11.5 mph 18.4 mph N/A   Haze
12:35 PM 6.8 °F -7.8 °F -2.4 °F 66% 30.00 in 10.0 mi NNW 10.4 mph 18.4 mph N/A   Overcast
12:55 PM 6.8 °F -9.3 °F -1.5 °F 69% 30.00 in 7.0 mi NNW 12.7 mph 18.4 mph N/A   Overcast
1:15 PM 6.4 °F -9.8 °F -2.0 °F 68% 30.00 in 7.0 mi NNW 12.7 mph 16.1 mph N/A   Overcast
1:35 PM 5.9 °F -5.8 °F -2.4 °F 69% 30.00 in 10.0 mi NW 6.9 mph - N/A   Overcast
1:55 PM 5.9 °F -9.7 °F -2.9 °F 67% 30.01 in 10.0 mi NW 11.5 mph 17.3 mph N/A   Overcast
2:15 PM 5.0 °F -11.6 °F -4.0 °F 66% 30.02 in 10.0 mi NW 12.7 mph 17.3 mph N/A   Overcast
2:35 PM 4.8 °F -12.5 °F -4.2 °F 66% 30.02 in 10.0 mi WNW 13.8 mph 19.6 mph N/A   Overcast
2:55 PM 4.5 °F -9.8 °F -4.7 °F 66% 30.03 in 10.0 mi NW 9.2 mph - N/A   Overcast
3:15 PM 3.9 °F -13.7 °F -5.3 °F 66% 30.04 in 10.0 mi NW 13.8 mph 18.4 mph N/A   Overcast
3:35 PM 2.7 °F -12.0 °F -6.0 °F 67% 30.04 in 10.0 mi NW 9.2 mph - N/A   Overcast
3:55 PM 1.9 °F -11.8 °F -6.7 °F 67% 30.04 in 10.0 mi NNW 8.1 mph - N/A   Scattered Clouds
4:15 PM 0.9 °F -13.1 °F -7.6 °F 68% 30.05 in 10.0 mi NW 8.1 mph - N/A   Clear
4:35 PM -0.2 °F -13.2 °F -7.8 °F 70% 30.05 in 10.0 mi NW 6.9 mph - N/A   Clear
4:55 PM -1.3 °F -13.1 °F -8.5 °F 72% 30.06 in 10.0 mi NNW 5.8 mph - N/A   Clear
5:15 PM -2.7 °F -13.1 °F -8.9 °F 75% 30.06 in 10.0 mi WNW 4.6 mph - N/A   Clear
5:35 PM -3.3 °F -18.2 °F -9.4 °F 75% 30.07 in 10.0 mi NW 8.1 mph - N/A   Clear
5:55 PM -4.0 °F -19.0 °F -9.8 °F 76% 30.08 in 10.0 mi WNW 8.1 mph - N/A   Clear
6:15 PM -4.7 °F -17.2 °F -10.5 °F 76% 30.09 in 10.0 mi WNW 5.8 mph - N/A   Clear
6:35 PM -5.8 °F -19.9 °F -11.4 °F 77% 30.09 in 10.0 mi WNW 6.9 mph - N/A   Clear
6:55 PM -6.5 °F -19.3 °F -11.9 °F 77% 30.09 in 10.0 mi WNW 5.8 mph - N/A   Clear
7:15 PM -7.6 °F -20.6 °F -13.0 °F 77% 30.10 in 10.0 mi WNW 5.8 mph - N/A   Clear
7:35 PM -8.0 °F -22.5 °F -13.0 °F 79% 30.10 in 10.0 mi WNW 6.9 mph - N/A   Clear
7:55 PM -9.0 °F -22.3 °F -14.1 °F 79% 30.10 in 10.0 mi WNW 5.8 mph - N/A   Clear
8:15 PM -9.4 °F -20.9 °F -14.3 °F 79% 30.10 in 10.0 mi WNW 4.6 mph - N/A   Clear
8:35 PM -11.4 °F -23.2 °F -15.9 °F 80% 30.11 in 10.0 mi WNW 4.6 mph - N/A   Clear
8:55 PM -11.6 °F -25.3 °F -16.1 °F 80% 30.11 in 10.0 mi West 5.8 mph - N/A   Clear
9:15 PM -13.9 °F -26.1 °F -18.4 °F 80% 30.11 in 10.0 mi West 4.6 mph - N/A   Clear
9:35 PM -13.4 °F -25.5 °F -18.4 °F 78% 30.11 in 10.0 mi WNW 4.6 mph - N/A   Clear
9:55 PM -13.9 °F -26.1 °F -18.8 °F 79% 30.11 in 10.0 mi West 4.6 mph - N/A   Clear
10:15 PM -15.0 °F -27.4 °F -19.8 °F 79% 30.12 in 10.0 mi West 4.6 mph - N/A   Clear
10:35 PM -14.3 °F -28.5 °F -19.3 °F 78% 30.12 in 10.0 mi WNW 5.8 mph - N/A   Clear
10:55 PM -14.6 °F -27.0 °F -19.8 °F 77% 30.12 in 10.0 mi WNW 4.6 mph - N/A   Clear
11:15 PM -14.8 °F -27.2 °F -20.0 °F 77% 30.13 in 10.0 mi WNW 4.6 mph - N/A   Clear
11:35 PM -15.7 °F -25.8 °F -21.1 °F 77% 30.14 in 10.0 mi West 3.5 mph - N/A   Clear
11:55 PM -16.2 °F -28.8 °F -21.8 °F 76% 30.13 in 10.0 mi WNW 4.6 mph - N/A   Clear